createdAt,value
2022-12-01T00:01:34.774Z,62.70
2022-12-01T00:04:43.434Z,62.76
2022-12-01T00:07:57.718Z,63.40
2022-12-01T00:11:10.126Z,63.83
2022-12-01T00:14:24.690Z,64.26
2022-12-01T00:17:35.669Z,63.88
2022-12-01T00:20:50.709Z,64.67
2022-12-01T00:23:55.544Z,64.31
2022-12-01T00:27:10.662Z,64.84
2022-12-01T00:30:27.751Z,64.99
2022-12-01T00:33:29.691Z,65.07
2022-12-01T00:36:44.753Z,65.01
2022-12-01T00:39:53.405Z,64.41
2022-12-01T00:43:07.722Z,64.45
2022-12-01T00:46:16.849Z,64.45
2022-12-01T00:49:25.393Z,64.72
2022-12-01T00:52:44.697Z,64.54
2022-12-01T00:55:53.598Z,65.05
2022-12-01T00:59:01.702Z,65.74
2022-12-01T01:02:10.452Z,65.41
2022-12-01T01:05:18.734Z,65.82
2022-12-01T01:08:27.393Z,65.97
2022-12-01T01:11:35.789Z,66.00
2022-12-01T01:14:50.716Z,66.55
2022-12-01T01:17:52.574Z,66.41
2022-12-01T01:21:10.823Z,67.12
2022-12-01T01:24:20.238Z,67.08
2022-12-01T01:27:35.729Z,67.08
2022-12-01T01:30:50.804Z,67.27
2022-12-01T01:34:06.758Z,68.08
2022-12-01T01:37:21.761Z,68.06
2022-12-01T01:40:30.530Z,68.61
2022-12-01T01:43:50.729Z,68.51
2022-12-01T01:46:59.390Z,68.92
2022-12-01T01:50:18.714Z,68.21
2022-12-01T01:53:34.774Z,68.67
2022-12-01T01:56:45.840Z,68.75
2022-12-01T02:00:00.818Z,69.13
2022-12-01T02:03:12.935Z,69.34
2022-12-01T02:06:29.790Z,69.37
2022-12-01T02:09:37.751Z,69.22
2022-12-01T02:13:17.754Z,69.65
2022-12-01T02:16:36.673Z,69.46
2022-12-01T02:20:15.799Z,70.08
2022-12-01T02:23:41.177Z,70.78
2022-12-01T02:27:03.760Z,70.73
2022-12-01T02:30:39.004Z,70.24
2022-12-01T02:33:57.793Z,69.97
2022-12-01T02:37:18.719Z,69.61
2022-12-01T02:40:33.875Z,69.97
2022-12-01T02:43:59.716Z,69.36
2022-12-01T02:47:13.774Z,69.32
2022-12-01T02:50:22.739Z,69.17
2022-12-01T02:53:31.346Z,68.61
2022-12-01T02:56:45.781Z,68.42
2022-12-01T02:59:55.510Z,68.58
2022-12-01T03:03:38.762Z,68.43
2022-12-01T03:07:30.796Z,68.34
2022-12-01T03:10:53.414Z,67.84
2022-12-01T03:14:15.722Z,68.48
2022-12-01T03:17:30.889Z,68.69
2022-12-01T03:20:54.823Z,69.36
2022-12-01T03:24:16.702Z,69.19
2022-12-01T03:27:25.646Z,68.94
2022-12-01T03:30:43.744Z,68.70
2022-12-01T03:33:52.282Z,68.07
2022-12-01T03:37:13.782Z,67.86
2022-12-01T03:40:20.026Z,67.88
2022-12-01T03:43:40.768Z,67.63
2022-12-01T03:46:59.894Z,67.77
2022-12-01T03:50:17.838Z,67.67
2022-12-01T03:53:31.742Z,67.31
2022-12-01T03:56:48.011Z,67.25
2022-12-01T03:59:56.801Z,67.61
2022-12-01T04:03:12.814Z,67.25
2022-12-01T04:06:15.696Z,67.12
2022-12-01T04:09:30.858Z,67.30
2022-12-01T04:12:33.360Z,67.15
2022-12-01T04:15:47.911Z,67.08
2022-12-01T04:18:56.422Z,67.61
2022-12-01T04:22:04.833Z,67.33
2022-12-01T04:25:19.779Z,67.56
2022-12-01T04:28:34.765Z,68.04
2022-12-01T04:31:49.901Z,68.17
2022-12-01T04:34:58.834Z,69.04
2022-12-01T04:38:13.815Z,69.26
2022-12-01T04:41:15.762Z,69.09
2022-12-01T04:44:34.820Z,68.91
2022-12-01T04:47:37.139Z,68.92
2022-12-01T04:50:51.841Z,68.65
2022-12-01T04:53:53.597Z,68.39
2022-12-01T04:57:08.870Z,68.42
2022-12-01T05:00:11.647Z,68.56
2022-12-01T05:03:26.805Z,68.88
2022-12-01T05:06:29.375Z,68.65
2022-12-01T05:09:43.791Z,68.50
2022-12-01T05:12:52.794Z,68.76
2022-12-01T05:16:13.000Z,68.82
2022-12-01T05:19:21.817Z,69.22
2022-12-01T05:23:04.449Z,69.77
2022-12-01T05:26:05.908Z,70.79
2022-12-01T05:29:21.235Z,70.09
2022-12-01T05:32:29.767Z,70.09
2022-12-01T05:35:44.839Z,70.25
2022-12-01T05:38:46.683Z,69.68
2022-12-01T05:42:02.868Z,70.28
2022-12-01T05:45:05.066Z,70.79
2022-12-01T05:48:19.815Z,70.54
2022-12-01T05:51:21.927Z,70.77
2022-12-01T05:54:36.813Z,70.81
2022-12-01T05:57:38.780Z,70.48
2022-12-01T06:00:53.800Z,70.96
2022-12-01T06:04:03.074Z,71.16
2022-12-01T06:07:11.476Z,71.47
2022-12-01T06:10:20.859Z,71.76
2022-12-01T06:13:29.403Z,71.91
2022-12-01T06:16:37.886Z,71.95
2022-12-01T06:19:46.881Z,72.41
2022-12-01T06:22:55.835Z,72.36
2022-12-01T06:26:10.830Z,72.54
2022-12-01T06:29:18.869Z,72.78
2022-12-01T06:32:33.843Z,72.66
2022-12-01T06:35:42.870Z,72.57
2022-12-01T06:38:57.833Z,72.91
2022-12-01T06:42:05.887Z,73.28
2022-12-01T06:45:20.871Z,72.78
2022-12-01T06:48:22.731Z,72.79
2022-12-01T06:51:37.902Z,72.79
2022-12-01T06:54:39.867Z,73.44
2022-12-01T06:57:54.949Z,73.52
2022-12-01T07:00:57.257Z,73.55
2022-12-01T07:04:12.830Z,73.76
2022-12-01T07:07:16.705Z,75.03
2022-12-01T07:10:31.886Z,76.15
2022-12-01T07:13:35.221Z,76.85
2022-12-01T07:16:50.146Z,77.33
2022-12-01T07:19:52.138Z,82.07
2022-12-01T07:23:06.890Z,69.37
2022-12-01T07:26:18.874Z,64.69
2022-12-01T07:29:37.115Z,58.97
2022-12-01T07:32:52.930Z,58.83
2022-12-01T07:36:01.627Z,57.80
2022-12-01T07:39:12.935Z,54.83
2022-12-01T07:42:29.946Z,55.19
2022-12-01T07:45:31.858Z,58.16
2022-12-01T07:48:59.923Z,55.64
2022-12-01T07:52:02.965Z,53.32
2022-12-01T07:55:18.950Z,51.19
2022-12-01T07:58:21.007Z,54.15
2022-12-01T08:01:39.158Z,55.84
2022-12-01T08:04:50.571Z,59.53
2022-12-01T08:08:00.964Z,58.57
2022-12-01T08:11:14.888Z,55.85
2022-12-01T08:14:23.930Z,53.51
2022-12-01T08:17:39.065Z,53.79
2022-12-01T08:20:48.130Z,59.70
2022-12-01T08:24:01.971Z,56.24
2022-12-01T08:27:17.273Z,60.89
2022-12-01T08:30:25.937Z,60.33
2022-12-01T08:33:41.043Z,60.28
2022-12-01T08:36:49.638Z,61.23
2022-12-01T08:40:21.033Z,62.33
2022-12-01T08:43:49.510Z,62.46
2022-12-01T08:47:14.399Z,58.27
2022-12-01T08:50:35.120Z,60.68
2022-12-01T08:53:46.059Z,60.83
2022-12-01T08:57:01.943Z,56.05
2022-12-01T09:00:04.630Z,57.41
2022-12-01T09:03:18.983Z,59.33
2022-12-01T09:06:28.447Z,55.74
2022-12-01T09:09:38.019Z,63.79
2022-12-01T09:12:53.183Z,57.82
2022-12-01T09:15:57.706Z,58.82
2022-12-01T09:19:15.162Z,61.59
2022-12-01T09:22:20.257Z,54.11
2022-12-01T09:25:35.129Z,54.56
2022-12-01T09:28:54.545Z,57.52
2022-12-01T09:32:05.040Z,57.01
2022-12-01T09:35:23.351Z,54.70
2022-12-01T09:38:35.241Z,55.94
2022-12-01T09:41:57.538Z,56.36
2022-12-01T09:45:13.054Z,53.42
2022-12-01T09:48:38.136Z,55.23
2022-12-01T09:51:46.762Z,53.77
2022-12-01T09:54:56.001Z,54.63
2022-12-01T09:58:12.208Z,55.96
2022-12-01T10:01:19.809Z,55.43
2022-12-01T10:04:45.021Z,53.78
2022-12-01T10:07:59.933Z,54.12
2022-12-01T10:11:27.025Z,54.17
2022-12-01T10:14:36.532Z,53.57
2022-12-01T10:18:01.103Z,54.76
2022-12-01T10:21:23.742Z,53.62
2022-12-01T10:24:53.121Z,53.22
2022-12-01T10:28:36.168Z,53.96
2022-12-01T10:31:53.462Z,54.67
2022-12-01T10:38:26.071Z,53.82
2022-12-01T10:41:37.751Z,56.76
2022-12-01T10:44:47.074Z,50.85
2022-12-01T10:48:10.974Z,52.92
2022-12-01T10:51:27.157Z,50.58
2022-12-01T10:54:45.111Z,52.11
2022-12-01T10:57:57.237Z,53.08
2022-12-01T11:01:13.432Z,53.80
2022-12-01T11:04:43.314Z,54.28
2022-12-01T11:07:55.625Z,54.03
2022-12-01T11:11:11.285Z,54.65
2022-12-01T11:14:25.751Z,55.18
2022-12-01T11:17:50.113Z,56.67
2022-12-01T11:21:22.249Z,52.25
2022-12-01T11:24:47.172Z,52.85
2022-12-01T11:28:11.374Z,53.11
2022-12-01T11:31:37.867Z,53.54
2022-12-01T11:34:46.121Z,53.46
2022-12-01T11:38:28.973Z,53.33
2022-12-01T11:41:37.848Z,53.75
2022-12-01T11:45:07.126Z,54.06
2022-12-01T11:48:35.343Z,54.22
2022-12-01T11:51:44.404Z,52.84
2022-12-01T11:55:10.121Z,52.34
2022-12-01T11:58:21.027Z,51.61
2022-12-01T12:01:57.549Z,51.44
2022-12-01T12:05:37.505Z,52.32
2022-12-01T12:09:09.508Z,52.99
2022-12-01T12:12:33.118Z,53.26
2022-12-01T12:16:14.749Z,52.48
2022-12-01T12:20:00.381Z,52.76
2022-12-01T12:23:44.278Z,57.84
2022-12-01T12:27:05.962Z,49.76
2022-12-01T12:30:28.448Z,54.75
2022-12-01T12:33:49.241Z,47.42
2022-12-01T12:37:29.136Z,48.36
2022-12-01T12:40:52.450Z,49.25
2022-12-01T12:44:21.385Z,53.19
2022-12-01T12:48:03.207Z,52.67
2022-12-01T12:51:19.545Z,53.15
2022-12-01T12:54:51.256Z,52.26
2022-12-01T12:58:11.298Z,51.33
2022-12-01T13:01:34.465Z,51.40
2022-12-01T13:04:45.552Z,51.84
2022-12-01T13:08:08.453Z,55.39
2022-12-01T13:11:25.210Z,55.77
2022-12-01T13:14:50.206Z,53.39
2022-12-01T13:18:01.496Z,52.44
2022-12-01T13:21:24.318Z,53.91
2022-12-01T13:24:36.218Z,50.24
2022-12-01T13:27:59.208Z,52.37
2022-12-01T13:31:14.390Z,50.39
2022-12-01T13:34:37.249Z,51.70
2022-12-01T13:37:46.017Z,52.98
2022-12-01T13:40:55.198Z,52.94
2022-12-01T13:44:19.802Z,53.44
2022-12-01T13:47:47.194Z,54.00
2022-12-01T13:51:05.352Z,53.92
2022-12-01T13:54:29.163Z,54.53
2022-12-01T13:57:41.253Z,54.97
2022-12-01T14:00:50.192Z,54.84
2022-12-01T14:04:34.255Z,55.34
2022-12-01T14:07:50.241Z,55.27
2022-12-01T14:10:57.057Z,55.57
2022-12-01T14:14:26.251Z,55.60
2022-12-01T14:17:44.227Z,56.11
2022-12-01T14:20:48.267Z,55.78
2022-12-01T14:24:09.350Z,55.53
2022-12-01T14:27:11.594Z,55.67
2022-12-01T14:31:03.557Z,55.79
2022-12-01T14:34:18.781Z,55.90
2022-12-01T14:37:42.468Z,56.08
2022-12-01T14:40:52.562Z,56.25
2022-12-01T14:44:18.389Z,56.78
2022-12-01T14:47:37.478Z,57.10
2022-12-01T14:50:52.340Z,57.23
2022-12-01T14:54:14.349Z,56.65
2022-12-01T14:57:28.282Z,57.11
2022-12-01T15:00:38.240Z,56.92
2022-12-01T15:03:57.279Z,57.03
2022-12-01T15:07:05.257Z,57.08
2022-12-01T15:10:39.242Z,57.17
2022-12-01T15:13:59.347Z,57.10
2022-12-01T15:17:14.491Z,57.46
2022-12-01T15:20:31.777Z,57.18
2022-12-01T15:24:06.294Z,56.81
2022-12-01T15:27:28.032Z,57.02
2022-12-01T15:30:54.318Z,57.11
2022-12-01T15:33:56.583Z,57.83
2022-12-01T15:37:16.535Z,57.76
2022-12-01T15:44:05.318Z,57.68
2022-12-01T15:47:33.339Z,57.93
2022-12-01T15:50:48.895Z,58.35
2022-12-01T15:54:02.381Z,59.07
2022-12-01T15:57:17.571Z,59.90
2022-12-01T16:00:27.582Z,59.89
2022-12-01T16:03:58.319Z,59.83
2022-12-01T16:07:09.853Z,59.50
2022-12-01T16:10:37.436Z,59.79
2022-12-01T16:13:55.714Z,58.93
2022-12-01T16:16:58.877Z,58.15
2022-12-01T16:20:25.358Z,58.72
2022-12-01T16:23:34.943Z,59.51
2022-12-01T16:26:55.344Z,59.68
2022-12-01T16:30:07.633Z,59.87
2022-12-01T16:33:27.358Z,60.29
2022-12-01T16:36:36.002Z,60.57
2022-12-01T16:39:45.371Z,60.91
2022-12-01T16:42:54.134Z,61.13
2022-12-01T16:46:13.443Z,61.12
2022-12-01T16:49:29.341Z,60.56
2022-12-01T16:52:45.917Z,60.90
2022-12-01T16:56:05.360Z,60.42
2022-12-01T16:59:15.173Z,60.81
2022-12-01T17:02:23.571Z,60.64
2022-12-01T17:05:32.574Z,60.67
2022-12-01T17:08:41.383Z,61.17
2022-12-01T17:11:50.307Z,61.25
2022-12-01T17:14:58.406Z,61.19
2022-12-01T17:18:06.986Z,60.46
2022-12-01T17:21:17.454Z,60.99
2022-12-01T17:24:26.042Z,60.90
2022-12-01T17:27:36.422Z,61.22
2022-12-01T17:30:51.796Z,61.44
2022-12-01T17:34:00.489Z,61.65
2022-12-01T17:37:20.706Z,61.31
2022-12-01T17:40:29.284Z,61.36
2022-12-01T17:43:45.448Z,61.33
2022-12-01T17:47:00.385Z,61.65
2022-12-01T17:50:02.253Z,61.97
2022-12-01T17:53:17.430Z,61.78
2022-12-01T17:56:25.414Z,61.96
2022-12-01T17:59:42.460Z,62.17
2022-12-01T18:02:44.258Z,61.84
2022-12-01T18:06:03.542Z,62.16
2022-12-01T18:09:12.418Z,62.28
2022-12-01T18:12:21.011Z,62.79
2022-12-01T18:15:34.676Z,63.64
2022-12-01T18:18:50.486Z,63.33
2022-12-01T18:21:52.272Z,63.78
2022-12-01T18:25:07.409Z,63.76
2022-12-01T18:28:09.251Z,63.69
2022-12-01T18:31:31.473Z,63.49
2022-12-01T18:34:43.454Z,63.51
2022-12-01T18:37:52.306Z,63.41
2022-12-01T18:41:05.590Z,63.62
2022-12-01T18:44:14.078Z,63.80
2022-12-01T18:47:22.422Z,64.11
2022-12-01T18:50:37.442Z,64.45
2022-12-01T18:53:46.521Z,64.42
2022-12-01T18:56:58.494Z,64.57
2022-12-01T19:00:07.846Z,64.46
2022-12-01T19:03:22.518Z,64.45
2022-12-01T19:06:25.863Z,64.54
2022-12-01T19:09:40.686Z,65.02
2022-12-01T19:12:50.110Z,65.02
2022-12-01T19:15:58.580Z,65.41
2022-12-01T19:19:07.252Z,64.84
2022-12-01T19:22:15.493Z,64.74
2022-12-01T19:25:24.019Z,64.76
2022-12-01T19:28:42.601Z,65.08
2022-12-01T19:31:50.855Z,65.16
2022-12-01T19:35:05.477Z,65.84
2022-12-01T19:38:20.511Z,65.95
2022-12-01T19:41:29.366Z,65.45
2022-12-01T19:44:38.519Z,65.65
2022-12-01T19:47:47.151Z,65.28
2022-12-01T19:50:55.543Z,65.76
2022-12-01T19:54:12.519Z,65.64
2022-12-01T19:57:21.346Z,65.45
2022-12-01T20:00:29.499Z,66.05
2022-12-01T20:03:38.810Z,66.29
2022-12-01T20:06:53.547Z,67.15
2022-12-01T20:09:55.622Z,66.73
2022-12-01T20:13:10.592Z,67.13
2022-12-01T20:16:15.384Z,67.21
2022-12-01T20:19:31.437Z,67.25
2022-12-01T20:22:34.474Z,67.32
2022-12-01T20:25:49.529Z,67.38
2022-12-01T20:29:09.556Z,67.55
2022-12-01T20:32:23.287Z,67.51
2022-12-01T20:35:32.626Z,68.07
2022-12-01T20:38:48.606Z,68.31
2022-12-01T20:41:50.663Z,68.09
2022-12-01T20:45:05.566Z,68.77
2022-12-01T20:48:14.575Z,69.01
2022-12-01T20:51:29.559Z,69.43
2022-12-01T20:54:31.449Z,69.55
2022-12-01T20:57:46.554Z,69.73
2022-12-01T21:00:49.008Z,69.61
2022-12-01T21:04:03.610Z,70.42
2022-12-01T21:07:11.562Z,70.43
2022-12-01T21:10:27.615Z,70.80
2022-12-01T21:13:31.042Z,71.20
2022-12-01T21:16:46.976Z,71.25
2022-12-01T21:19:56.084Z,71.70
2022-12-01T21:23:22.552Z,71.71
2022-12-01T21:26:32.566Z,72.14
2022-12-01T21:29:55.675Z,71.92
2022-12-01T21:33:28.626Z,71.77
2022-12-01T21:36:43.620Z,72.69
2022-12-01T21:39:51.636Z,73.16
2022-12-01T21:43:22.643Z,73.29
2022-12-01T21:46:31.664Z,73.08
2022-12-01T21:49:40.301Z,72.67
2022-12-01T21:52:50.662Z,72.65
2022-12-01T21:55:59.218Z,72.52
2022-12-01T21:59:22.664Z,73.26
2022-12-01T22:02:55.681Z,73.47
2022-12-01T22:06:30.108Z,73.09
2022-12-01T22:09:42.613Z,72.87
2022-12-01T22:12:51.323Z,72.71
2022-12-01T22:16:00.690Z,72.80
2022-12-01T22:19:36.886Z,72.90
2022-12-01T22:22:46.600Z,72.51
2022-12-01T22:25:55.217Z,72.53
2022-12-01T22:29:05.622Z,72.67
2022-12-01T22:32:55.650Z,72.76
2022-12-01T22:36:24.978Z,72.95
2022-12-01T22:39:37.744Z,73.27
2022-12-01T22:42:46.230Z,73.51
2022-12-01T22:46:14.700Z,73.39
2022-12-01T22:49:29.692Z,73.19
2022-12-01T22:52:31.779Z,73.14
2022-12-01T22:55:46.688Z,72.99
2022-12-01T22:58:54.645Z,72.91
2022-12-01T23:02:20.965Z,72.74
2022-12-01T23:05:33.654Z,72.77
2022-12-01T23:08:42.372Z,72.95
2022-12-01T23:11:55.674Z,72.92
2022-12-01T23:15:41.752Z,73.35
2022-12-01T23:18:49.673Z,73.45
2022-12-01T23:21:58.217Z,73.10
2022-12-01T23:25:08.706Z,73.25
2022-12-01T23:28:31.653Z,72.93
2022-12-01T23:31:47.804Z,72.76
2022-12-01T23:35:02.868Z,72.99
2022-12-01T23:38:05.554Z,72.91
2022-12-01T23:41:27.677Z,72.93
2022-12-01T23:44:39.378Z,72.83
2022-12-01T23:47:54.710Z,73.01
2022-12-01T23:50:56.563Z,73.21
2022-12-01T23:54:26.802Z,72.74
2022-12-01T23:57:36.903Z,71.92
